Minneapolis, Minnesota
Traffic Map
Current Weather Conditions
Minneapolis, Minnesota
Overcast
Overcast
26°
Feels Like: 27°
Wind Chill: 26° Ceiling: 3600
Heat Index: 27° Visibility: 10mi
Dew Point: 21° Wind: 3mph
Humidity: 74% Direction: 200° (SSW)
Pressure: 29.78in Gusts: 0mph
Raw Report DataKMSP 260253Z 20003KT 10SM OVC036 26/21 A2978 RMK AO2 SLP080 T02560206 53004
Traffic Incident Summary
Active as of:
Severity:
Category:
InformationThere was an issue retrieving the traffic information for this location. Please try a different location or try again shortly.
Advertisements
Track Severe Weather on mobile